sensor_id;sensor_type;location;lat;lon;timestamp;P1;durP1;ratioP1;P2;durP2;ratioP2
23078;SDS011;11707;50.830;4.364;2022-09-09T00:00:40;7.70;;;1.55;;
23078;SDS011;11707;50.830;4.364;2022-09-09T00:03:14;5.90;;;1.35;;
23078;SDS011;11707;50.830;4.364;2022-09-09T00:06:05;3.47;;;1.05;;
23078;SDS011;11707;50.830;4.364;2022-09-09T00:11:19;3.47;;;1.15;;
23078;SDS011;11707;50.830;4.364;2022-09-09T00:13:56;4.00;;;1.10;;
23078;SDS011;11707;50.830;4.364;2022-09-09T00:16:26;4.07;;;1.35;;
23078;SDS011;11707;50.830;4.364;2022-09-09T00:24:42;7.10;;;1.60;;
23078;SDS011;11707;50.830;4.364;2022-09-09T00:27:31;3.22;;;0.93;;
23078;SDS011;11707;50.830;4.364;2022-09-09T00:32:38;5.15;;;1.77;;
23078;SDS011;11707;50.830;4.364;2022-09-09T00:35:16;4.68;;;1.48;;
23078;SDS011;11707;50.830;4.364;2022-09-09T00:37:46;4.07;;;1.40;;
23078;SDS011;11707;50.830;4.364;2022-09-09T00:52:11;6.40;;;1.15;;
23078;SDS011;11707;50.830;4.364;2022-09-09T00:58:06;4.65;;;1.38;;
23078;SDS011;11707;50.830;4.364;2022-09-09T01:00:35;4.07;;;1.05;;
23078;SDS011;11707;50.830;4.364;2022-09-09T01:06:02;8.88;;;1.20;;
23078;SDS011;11707;50.830;4.364;2022-09-09T01:16:56;3.45;;;0.73;;
23078;SDS011;11707;50.830;4.364;2022-09-09T01:19:38;6.75;;;1.45;;
23078;SDS011;11707;50.830;4.364;2022-09-09T01:27:48;11.40;;;1.92;;
23078;SDS011;11707;50.830;4.364;2022-09-09T01:30:16;3.38;;;1.27;;
23078;SDS011;11707;50.830;4.364;2022-09-09T01:32:44;10.02;;;1.40;;
23078;SDS011;11707;50.830;4.364;2022-09-09T01:35:15;5.07;;;1.67;;
23078;SDS011;11707;50.830;4.364;2022-09-09T01:37:48;3.83;;;1.08;;
23078;SDS011;11707;50.830;4.364;2022-09-09T01:40:14;3.28;;;1.25;;
23078;SDS011;11707;50.830;4.364;2022-09-09T01:42:40;7.78;;;1.42;;
23078;SDS011;11707;50.830;4.364;2022-09-09T01:45:06;9.68;;;2.22;;
23078;SDS011;11707;50.830;4.364;2022-09-09T01:47:32;7.72;;;2.17;;
23078;SDS011;11707;50.830;4.364;2022-09-09T01:49:58;12.13;;;1.88;;
23078;SDS011;11707;50.830;4.364;2022-09-09T01:52:25;6.70;;;1.52;;
23078;SDS011;11707;50.830;4.364;2022-09-09T01:54:51;7.22;;;1.70;;
23078;SDS011;11707;50.830;4.364;2022-09-09T02:00:12;10.43;;;1.65;;
23078;SDS011;11707;50.830;4.364;2022-09-09T02:02:53;6.72;;;1.55;;
23078;SDS011;11707;50.830;4.364;2022-09-09T02:05:49;6.03;;;1.65;;
23078;SDS011;11707;50.830;4.364;2022-09-09T02:13:39;10.82;;;2.13;;
23078;SDS011;11707;50.830;4.364;2022-09-09T02:16:08;8.98;;;1.95;;
23078;SDS011;11707;50.830;4.364;2022-09-09T02:21:48;14.90;;;2.97;;
23078;SDS011;11707;50.830;4.364;2022-09-09T02:24:15;8.75;;;1.90;;
23078;SDS011;11707;50.830;4.364;2022-09-09T02:26:41;10.95;;;2.55;;
23078;SDS011;11707;50.830;4.364;2022-09-09T02:29:17;8.02;;;2.03;;
23078;SDS011;11707;50.830;4.364;2022-09-09T02:31:47;6.15;;;2.22;;
23078;SDS011;11707;50.830;4.364;2022-09-09T02:34:16;8.95;;;2.22;;
23078;SDS011;11707;50.830;4.364;2022-09-09T02:36:45;10.65;;;2.13;;
23078;SDS011;11707;50.830;4.364;2022-09-09T02:39:11;6.63;;;1.85;;
23078;SDS011;11707;50.830;4.364;2022-09-09T02:41:39;7.55;;;1.80;;
23078;SDS011;11707;50.830;4.364;2022-09-09T02:44:13;8.73;;;2.17;;
23078;SDS011;11707;50.830;4.364;2022-09-09T02:54:57;11.32;;;1.98;;
23078;SDS011;11707;50.830;4.364;2022-09-09T02:57:31;10.13;;;2.20;;
23078;SDS011;11707;50.830;4.364;2022-09-09T02:59:59;5.43;;;1.65;;
23078;SDS011;11707;50.830;4.364;2022-09-09T03:02:25;6.03;;;1.90;;
23078;SDS011;11707;50.830;4.364;2022-09-09T03:04:51;12.43;;;2.40;;
23078;SDS011;11707;50.830;4.364;2022-09-09T03:07:18;9.02;;;2.35;;
23078;SDS011;11707;50.830;4.364;2022-09-09T03:09:44;10.10;;;2.05;;
23078;SDS011;11707;50.830;4.364;2022-09-09T03:12:10;8.13;;;2.53;;
23078;SDS011;11707;50.830;4.364;2022-09-09T03:14:36;6.07;;;2.00;;
23078;SDS011;11707;50.830;4.364;2022-09-09T03:17:03;9.50;;;2.28;;
23078;SDS011;11707;50.830;4.364;2022-09-09T03:19:30;9.45;;;2.42;;
23078;SDS011;11707;50.830;4.364;2022-09-09T03:21:56;9.77;;;2.20;;
23078;SDS011;11707;50.830;4.364;2022-09-09T03:24:23;8.40;;;1.65;;
23078;SDS011;11707;50.830;4.364;2022-09-09T03:26:49;9.07;;;2.22;;
23078;SDS011;11707;50.830;4.364;2022-09-09T03:29:15;8.48;;;2.50;;
23078;SDS011;11707;50.830;4.364;2022-09-09T03:31:42;11.57;;;1.98;;
23078;SDS011;11707;50.830;4.364;2022-09-09T03:34:08;21.10;;;2.92;;
23078;SDS011;11707;50.830;4.364;2022-09-09T03:36:34;10.57;;;2.85;;
23078;SDS011;11707;50.830;4.364;2022-09-09T03:39:00;8.40;;;2.50;;
23078;SDS011;11707;50.830;4.364;2022-09-09T03:41:27;9.80;;;2.28;;
23078;SDS011;11707;50.830;4.364;2022-09-09T03:43:53;9.27;;;2.70;;
23078;SDS011;11707;50.830;4.364;2022-09-09T03:46:20;6.72;;;2.10;;
23078;SDS011;11707;50.830;4.364;2022-09-09T03:48:47;14.40;;;2.50;;
23078;SDS011;11707;50.830;4.364;2022-09-09T03:51:13;10.48;;;2.55;;
23078;SDS011;11707;50.830;4.364;2022-09-09T03:53:39;10.73;;;2.80;;
23078;SDS011;11707;50.830;4.364;2022-09-09T03:56:05;13.65;;;2.08;;
23078;SDS011;11707;50.830;4.364;2022-09-09T03:58:32;8.60;;;1.80;;
23078;SDS011;11707;50.830;4.364;2022-09-09T04:01:03;14.48;;;2.17;;
23078;SDS011;11707;50.830;4.364;2022-09-09T04:03:38;11.75;;;2.50;;
23078;SDS011;11707;50.830;4.364;2022-09-09T04:06:05;8.85;;;2.10;;
23078;SDS011;11707;50.830;4.364;2022-09-09T04:08:33;12.50;;;2.95;;
23078;SDS011;11707;50.830;4.364;2022-09-09T04:11:00;10.75;;;2.47;;
23078;SDS011;11707;50.830;4.364;2022-09-09T04:13:31;10.40;;;2.45;;
23078;SDS011;11707;50.830;4.364;2022-09-09T04:15:59;11.07;;;2.30;;
23078;SDS011;11707;50.830;4.364;2022-09-09T04:18:26;9.00;;;2.20;;
23078;SDS011;11707;50.830;4.364;2022-09-09T04:20:53;13.60;;;2.15;;
23078;SDS011;11707;50.830;4.364;2022-09-09T04:23:21;13.77;;;2.30;;
23078;SDS011;11707;50.830;4.364;2022-09-09T04:25:47;5.97;;;2.20;;
23078;SDS011;11707;50.830;4.364;2022-09-09T04:28:17;13.10;;;2.63;;
23078;SDS011;11707;50.830;4.364;2022-09-09T04:30:44;10.88;;;2.30;;
23078;SDS011;11707;50.830;4.364;2022-09-09T04:33:11;13.00;;;2.22;;
23078;SDS011;11707;50.830;4.364;2022-09-09T04:35:38;12.13;;;2.45;;
23078;SDS011;11707;50.830;4.364;2022-09-09T04:38:04;8.70;;;2.10;;
23078;SDS011;11707;50.830;4.364;2022-09-09T04:40:32;12.38;;;2.15;;
23078;SDS011;11707;50.830;4.364;2022-09-09T04:42:58;10.57;;;2.88;;
23078;SDS011;11707;50.830;4.364;2022-09-09T04:45:24;9.90;;;2.63;;
23078;SDS011;11707;50.830;4.364;2022-09-09T04:47:51;12.93;;;2.50;;
23078;SDS011;11707;50.830;4.364;2022-09-09T04:50:17;18.10;;;2.78;;
23078;SDS011;11707;50.830;4.364;2022-09-09T04:52:43;12.80;;;2.45;;
23078;SDS011;11707;50.830;4.364;2022-09-09T04:55:09;17.33;;;3.13;;
23078;SDS011;11707;50.830;4.364;2022-09-09T04:57:35;11.52;;;2.80;;
23078;SDS011;11707;50.830;4.364;2022-09-09T05:00:01;9.43;;;2.08;;
23078;SDS011;11707;50.830;4.364;2022-09-09T05:02:28;9.43;;;2.22;;
23078;SDS011;11707;50.830;4.364;2022-09-09T05:04:55;9.45;;;2.22;;
23078;SDS011;11707;50.830;4.364;2022-09-09T05:07:21;8.45;;;1.92;;
23078;SDS011;11707;50.830;4.364;2022-09-09T05:09:47;10.10;;;2.53;;
23078;SDS011;11707;50.830;4.364;2022-09-09T05:12:14;10.60;;;2.70;;
23078;SDS011;11707;50.830;4.364;2022-09-09T05:14:41;16.15;;;2.97;;
23078;SDS011;11707;50.830;4.364;2022-09-09T05:17:08;8.65;;;2.38;;
23078;SDS011;11707;50.830;4.364;2022-09-09T05:19:33;8.68;;;3.20;;
23078;SDS011;11707;50.830;4.364;2022-09-09T05:21:59;12.60;;;2.67;;
23078;SDS011;11707;50.830;4.364;2022-09-09T05:24:26;11.05;;;2.15;;
23078;SDS011;11707;50.830;4.364;2022-09-09T05:26:52;9.32;;;3.13;;
23078;SDS011;11707;50.830;4.364;2022-09-09T05:29:17;15.00;;;4.03;;
23078;SDS011;11707;50.830;4.364;2022-09-09T05:31:46;9.85;;;2.47;;
23078;SDS011;11707;50.830;4.364;2022-09-09T05:34:12;12.70;;;2.50;;
23078;SDS011;11707;50.830;4.364;2022-09-09T05:36:38;15.98;;;2.30;;
23078;SDS011;11707;50.830;4.364;2022-09-09T05:39:03;19.02;;;5.32;;
23078;SDS011;11707;50.830;4.364;2022-09-09T05:41:29;27.02;;;8.85;;
23078;SDS011;11707;50.830;4.364;2022-09-09T05:43:56;21.48;;;8.07;;
23078;SDS011;11707;50.830;4.364;2022-09-09T05:46:23;10.52;;;2.95;;
23078;SDS011;11707;50.830;4.364;2022-09-09T05:48:52;13.57;;;2.97;;
23078;SDS011;11707;50.830;4.364;2022-09-09T05:51:22;15.05;;;2.90;;
23078;SDS011;11707;50.830;4.364;2022-09-09T05:53:51;16.75;;;2.38;;
23078;SDS011;11707;50.830;4.364;2022-09-09T05:56:18;11.18;;;2.65;;
23078;SDS011;11707;50.830;4.364;2022-09-09T05:58:51;14.73;;;3.40;;
23078;SDS011;11707;50.830;4.364;2022-09-09T06:01:31;8.50;;;2.78;;
23078;SDS011;11707;50.830;4.364;2022-09-09T06:03:58;8.50;;;1.75;;
23078;SDS011;11707;50.830;4.364;2022-09-09T06:06:25;7.95;;;2.53;;
23078;SDS011;11707;50.830;4.364;2022-09-09T06:08:55;12.48;;;2.65;;
23078;SDS011;11707;50.830;4.364;2022-09-09T06:11:26;9.25;;;3.03;;
23078;SDS011;11707;50.830;4.364;2022-09-09T06:13:55;10.70;;;2.78;;
23078;SDS011;11707;50.830;4.364;2022-09-09T06:16:22;11.75;;;2.80;;
23078;SDS011;11707;50.830;4.364;2022-09-09T06:18:50;13.57;;;2.85;;
23078;SDS011;11707;50.830;4.364;2022-09-09T06:21:17;15.77;;;2.85;;
23078;SDS011;11707;50.830;4.364;2022-09-09T06:23:44;10.88;;;2.92;;
23078;SDS011;11707;50.830;4.364;2022-09-09T06:26:12;17.90;;;3.97;;
23078;SDS011;11707;50.830;4.364;2022-09-09T06:28:42;14.07;;;3.08;;
23078;SDS011;11707;50.830;4.364;2022-09-09T06:31:11;10.43;;;2.67;;
23078;SDS011;11707;50.830;4.364;2022-09-09T06:33:40;11.02;;;2.53;;
23078;SDS011;11707;50.830;4.364;2022-09-09T06:36:07;14.63;;;2.78;;
23078;SDS011;11707;50.830;4.364;2022-09-09T06:38:53;14.25;;;2.38;;
23078;SDS011;11707;50.830;4.364;2022-09-09T06:41:20;8.68;;;2.38;;
23078;SDS011;11707;50.830;4.364;2022-09-09T06:43:47;12.63;;;2.88;;
23078;SDS011;11707;50.830;4.364;2022-09-09T06:46:15;11.32;;;2.30;;
23078;SDS011;11707;50.830;4.364;2022-09-09T06:48:42;14.02;;;2.38;;
23078;SDS011;11707;50.830;4.364;2022-09-09T06:53:52;6.78;;;2.13;;
23078;SDS011;11707;50.830;4.364;2022-09-09T06:56:20;9.40;;;2.15;;
23078;SDS011;11707;50.830;4.364;2022-09-09T06:58:49;13.23;;;2.25;;
23078;SDS011;11707;50.830;4.364;2022-09-09T07:01:17;17.30;;;2.67;;
23078;SDS011;11707;50.830;4.364;2022-09-09T07:03:46;12.32;;;1.98;;
23078;SDS011;11707;50.830;4.364;2022-09-09T07:06:17;10.50;;;2.42;;
23078;SDS011;11707;50.830;4.364;2022-09-09T07:08:51;11.55;;;2.13;;
23078;SDS011;11707;50.830;4.364;2022-09-09T07:11:22;15.57;;;2.78;;
23078;SDS011;11707;50.830;4.364;2022-09-09T07:13:49;8.80;;;2.28;;
23078;SDS011;11707;50.830;4.364;2022-09-09T07:16:16;9.48;;;1.90;;
23078;SDS011;11707;50.830;4.364;2022-09-09T07:18:43;13.15;;;3.03;;
23078;SDS011;11707;50.830;4.364;2022-09-09T07:21:10;8.45;;;2.10;;
23078;SDS011;11707;50.830;4.364;2022-09-09T07:23:40;8.38;;;1.83;;
23078;SDS011;11707;50.830;4.364;2022-09-09T07:26:10;12.73;;;2.17;;
23078;SDS011;11707;50.830;4.364;2022-09-09T07:28:37;10.43;;;2.15;;
23078;SDS011;11707;50.830;4.364;2022-09-09T07:31:04;11.32;;;2.65;;
23078;SDS011;11707;50.830;4.364;2022-09-09T07:33:31;8.02;;;2.00;;
23078;SDS011;11707;50.830;4.364;2022-09-09T07:38:40;11.30;;;3.03;;
23078;SDS011;11707;50.830;4.364;2022-09-09T07:41:10;9.10;;;2.53;;
23078;SDS011;11707;50.830;4.364;2022-09-09T07:43:44;12.75;;;2.30;;
23078;SDS011;11707;50.830;4.364;2022-09-09T07:46:13;8.60;;;2.22;;
23078;SDS011;11707;50.830;4.364;2022-09-09T07:48:48;7.47;;;2.03;;
23078;SDS011;11707;50.830;4.364;2022-09-09T07:51:16;8.65;;;2.50;;
23078;SDS011;11707;50.830;4.364;2022-09-09T07:53:44;7.97;;;2.63;;
23078;SDS011;11707;50.830;4.364;2022-09-09T07:56:12;8.68;;;2.13;;
23078;SDS011;11707;50.830;4.364;2022-09-09T07:58:41;8.85;;;2.25;;
23078;SDS011;11707;50.830;4.364;2022-09-09T08:01:11;8.82;;;2.30;;
23078;SDS011;11707;50.830;4.364;2022-09-09T08:03:39;10.53;;;2.57;;
23078;SDS011;11707;50.830;4.364;2022-09-09T08:06:06;19.23;;;2.33;;
23078;SDS011;11707;50.830;4.364;2022-09-09T08:08:34;12.35;;;2.00;;
23078;SDS011;11707;50.830;4.364;2022-09-09T08:11:02;11.27;;;3.22;;
23078;SDS011;11707;50.830;4.364;2022-09-09T08:13:29;9.65;;;2.30;;
23078;SDS011;11707;50.830;4.364;2022-09-09T08:16:03;7.85;;;2.00;;
23078;SDS011;11707;50.830;4.364;2022-09-09T08:18:33;12.82;;;3.22;;
23078;SDS011;11707;50.830;4.364;2022-09-09T08:21:33;7.72;;;2.08;;
23078;SDS011;11707;50.830;4.364;2022-09-09T08:23:53;11.38;;;2.75;;
23078;SDS011;11707;50.830;4.364;2022-09-09T08:26:21;12.60;;;2.55;;
23078;SDS011;11707;50.830;4.364;2022-09-09T08:28:59;9.57;;;2.13;;
23078;SDS011;11707;50.830;4.364;2022-09-09T08:33:56;7.53;;;2.20;;
23078;SDS011;11707;50.830;4.364;2022-09-09T08:36:25;9.55;;;2.50;;
23078;SDS011;11707;50.830;4.364;2022-09-09T08:38:54;8.23;;;2.30;;
23078;SDS011;11707;50.830;4.364;2022-09-09T08:52:28;11.30;;;2.60;;
23078;SDS011;11707;50.830;4.364;2022-09-09T08:55:02;10.70;;;2.33;;
23078;SDS011;11707;50.830;4.364;2022-09-09T08:57:43;15.65;;;3.17;;
23078;SDS011;11707;50.830;4.364;2022-09-09T09:00:10;13.88;;;2.85;;
23078;SDS011;11707;50.830;4.364;2022-09-09T09:05:42;11.82;;;2.92;;
23078;SDS011;11707;50.830;4.364;2022-09-09T09:08:28;10.13;;;2.25;;
23078;SDS011;11707;50.830;4.364;2022-09-09T09:11:06;9.15;;;2.97;;
23078;SDS011;11707;50.830;4.364;2022-09-09T09:13:46;7.43;;;2.50;;
23078;SDS011;11707;50.830;4.364;2022-09-09T09:19:23;11.65;;;2.55;;
23078;SDS011;11707;50.830;4.364;2022-09-09T09:21:54;9.63;;;3.35;;
23078;SDS011;11707;50.830;4.364;2022-09-09T09:24:25;7.40;;;2.38;;
23078;SDS011;11707;50.830;4.364;2022-09-09T09:27:00;7.13;;;2.67;;
23078;SDS011;11707;50.830;4.364;2022-09-09T09:29:37;13.13;;;3.00;;
23078;SDS011;11707;50.830;4.364;2022-09-09T09:32:05;12.52;;;2.85;;
23078;SDS011;11707;50.830;4.364;2022-09-09T09:34:36;11.70;;;2.70;;
23078;SDS011;11707;50.830;4.364;2022-09-09T09:37:01;13.73;;;3.35;;
23078;SDS011;11707;50.830;4.364;2022-09-09T09:39:37;9.60;;;2.88;;
23078;SDS011;11707;50.830;4.364;2022-09-09T09:42:22;16.02;;;3.70;;
23078;SDS011;11707;50.830;4.364;2022-09-09T09:44:49;9.88;;;2.83;;
23078;SDS011;11707;50.830;4.364;2022-09-09T09:49:52;12.20;;;2.97;;
23078;SDS011;11707;50.830;4.364;2022-09-09T09:52:21;10.13;;;3.05;;
23078;SDS011;11707;50.830;4.364;2022-09-09T09:54:52;7.00;;;2.08;;
23078;SDS011;11707;50.830;4.364;2022-09-09T09:57:18;5.20;;;2.50;;
23078;SDS011;11707;50.830;4.364;2022-09-09T10:00:00;12.17;;;2.63;;
23078;SDS011;11707;50.830;4.364;2022-09-09T10:02:48;9.15;;;2.13;;
23078;SDS011;11707;50.830;4.364;2022-09-09T10:07:45;7.30;;;2.47;;
23078;SDS011;11707;50.830;4.364;2022-09-09T10:10:23;9.07;;;2.55;;
23078;SDS011;11707;50.830;4.364;2022-09-09T10:15:36;8.35;;;2.33;;
23078;SDS011;11707;50.830;4.364;2022-09-09T10:18:56;6.82;;;2.38;;
23078;SDS011;11707;50.830;4.364;2022-09-09T10:24:17;9.90;;;2.58;;
23078;SDS011;11707;50.830;4.364;2022-09-09T10:27:00;13.23;;;3.15;;
23078;SDS011;11707;50.830;4.364;2022-09-09T10:29:53;9.77;;;2.80;;
23078;SDS011;11707;50.830;4.364;2022-09-09T10:35:22;11.02;;;2.63;;
23078;SDS011;11707;50.830;4.364;2022-09-09T10:46:31;7.95;;;2.47;;
23078;SDS011;11707;50.830;4.364;2022-09-09T10:57:06;7.13;;;2.58;;
23078;SDS011;11707;50.830;4.364;2022-09-09T10:59:42;8.25;;;2.20;;
23078;SDS011;11707;50.830;4.364;2022-09-09T11:02:19;9.95;;;2.20;;
23078;SDS011;11707;50.830;4.364;2022-09-09T11:04:53;9.57;;;2.10;;
23078;SDS011;11707;50.830;4.364;2022-09-09T11:10:40;8.52;;;1.70;;
23078;SDS011;11707;50.830;4.364;2022-09-09T11:13:14;9.88;;;2.60;;
23078;SDS011;11707;50.830;4.364;2022-09-09T11:16:50;11.02;;;2.10;;
23078;SDS011;11707;50.830;4.364;2022-09-09T11:19:29;7.10;;;1.50;;
23078;SDS011;11707;50.830;4.364;2022-09-09T11:21:59;13.48;;;2.35;;
23078;SDS011;11707;50.830;4.364;2022-09-09T11:33:16;7.65;;;2.25;;
23078;SDS011;11707;50.830;4.364;2022-09-09T11:38:34;6.88;;;1.58;;
23078;SDS011;11707;50.830;4.364;2022-09-09T11:41:04;6.05;;;1.92;;
23078;SDS011;11707;50.830;4.364;2022-09-09T11:43:38;11.43;;;2.20;;
23078;SDS011;11707;50.830;4.364;2022-09-09T11:46:10;17.52;;;2.60;;
23078;SDS011;11707;50.830;4.364;2022-09-09T11:48:42;12.93;;;2.53;;
23078;SDS011;11707;50.830;4.364;2022-09-09T11:56:24;12.15;;;2.10;;
23078;SDS011;11707;50.830;4.364;2022-09-09T11:58:55;9.27;;;2.00;;
23078;SDS011;11707;50.830;4.364;2022-09-09T12:01:43;10.00;;;2.10;;
23078;SDS011;11707;50.830;4.364;2022-09-09T12:06:43;9.70;;;2.42;;
23078;SDS011;11707;50.830;4.364;2022-09-09T12:11:51;9.88;;;3.63;;
23078;SDS011;11707;50.830;4.364;2022-09-09T12:19:40;9.80;;;2.15;;
23078;SDS011;11707;50.830;4.364;2022-09-09T12:27:23;10.48;;;2.50;;
23078;SDS011;11707;50.830;4.364;2022-09-09T12:29:59;16.50;;;2.10;;
23078;SDS011;11707;50.830;4.364;2022-09-09T12:32:29;8.25;;;1.58;;
23078;SDS011;11707;50.830;4.364;2022-09-09T12:37:58;20.58;;;2.28;;
23078;SDS011;11707;50.830;4.364;2022-09-09T12:40:28;7.18;;;1.40;;
23078;SDS011;11707;50.830;4.364;2022-09-09T12:43:00;17.35;;;1.67;;
23078;SDS011;11707;50.830;4.364;2022-09-09T12:45:28;14.13;;;2.15;;
23078;SDS011;11707;50.830;4.364;2022-09-09T12:48:14;18.02;;;2.15;;
23078;SDS011;11707;50.830;4.364;2022-09-09T12:50:45;12.43;;;1.58;;
23078;SDS011;11707;50.830;4.364;2022-09-09T12:53:33;3.97;;;1.00;;
23078;SDS011;11707;50.830;4.364;2022-09-09T12:58:27;5.70;;;1.33;;
23078;SDS011;11707;50.830;4.364;2022-09-09T13:00:58;7.88;;;1.60;;
23078;SDS011;11707;50.830;4.364;2022-09-09T13:03:25;4.22;;;1.08;;
23078;SDS011;11707;50.830;4.364;2022-09-09T13:05:52;6.63;;;1.50;;
23078;SDS011;11707;50.830;4.364;2022-09-09T13:08:18;5.57;;;1.38;;
23078;SDS011;11707;50.830;4.364;2022-09-09T13:13:35;4.95;;;1.17;;
23078;SDS011;11707;50.830;4.364;2022-09-09T13:16:03;3.72;;;1.40;;
23078;SDS011;11707;50.830;4.364;2022-09-09T13:18:33;5.78;;;1.80;;
23078;SDS011;11707;50.830;4.364;2022-09-09T13:21:00;9.65;;;1.70;;
23078;SDS011;11707;50.830;4.364;2022-09-09T13:23:27;8.30;;;2.05;;
23078;SDS011;11707;50.830;4.364;2022-09-09T13:28:26;6.65;;;2.00;;
23078;SDS011;11707;50.830;4.364;2022-09-09T13:31:00;3.88;;;1.08;;
23078;SDS011;11707;50.830;4.364;2022-09-09T13:36:02;5.75;;;1.25;;
23078;SDS011;11707;50.830;4.364;2022-09-09T13:38:36;5.90;;;1.20;;
23078;SDS011;11707;50.830;4.364;2022-09-09T13:41:24;7.50;;;1.48;;
23078;SDS011;11707;50.830;4.364;2022-09-09T13:44:42;3.00;;;1.17;;
23078;SDS011;11707;50.830;4.364;2022-09-09T13:47:17;5.20;;;1.30;;
23078;SDS011;11707;50.830;4.364;2022-09-09T13:49:48;4.75;;;2.15;;
23078;SDS011;11707;50.830;4.364;2022-09-09T13:52:15;3.05;;;1.20;;
23078;SDS011;11707;50.830;4.364;2022-09-09T13:54:46;3.72;;;1.45;;
23078;SDS011;11707;50.830;4.364;2022-09-09T13:57:20;4.90;;;1.33;;
23078;SDS011;11707;50.830;4.364;2022-09-09T13:59:48;4.40;;;1.23;;
23078;SDS011;11707;50.830;4.364;2022-09-09T14:02:14;3.03;;;1.10;;
23078;SDS011;11707;50.830;4.364;2022-09-09T14:04:41;4.65;;;1.73;;
23078;SDS011;11707;50.830;4.364;2022-09-09T14:07:14;7.35;;;1.33;;
23078;SDS011;11707;50.830;4.364;2022-09-09T14:12:13;3.45;;;1.25;;
23078;SDS011;11707;50.830;4.364;2022-09-09T14:14:40;5.30;;;1.45;;
23078;SDS011;11707;50.830;4.364;2022-09-09T14:17:09;2.70;;;1.20;;
23078;SDS011;11707;50.830;4.364;2022-09-09T14:19:35;3.88;;;1.23;;
23078;SDS011;11707;50.830;4.364;2022-09-09T14:22:02;5.63;;;1.58;;
23078;SDS011;11707;50.830;4.364;2022-09-09T14:24:28;9.23;;;1.80;;
23078;SDS011;11707;50.830;4.364;2022-09-09T14:26:54;9.05;;;1.80;;
23078;SDS011;11707;50.830;4.364;2022-09-09T14:29:20;8.48;;;1.33;;
23078;SDS011;11707;50.830;4.364;2022-09-09T14:31:45;6.68;;;1.95;;
23078;SDS011;11707;50.830;4.364;2022-09-09T14:34:11;6.40;;;1.50;;
23078;SDS011;11707;50.830;4.364;2022-09-09T14:36:39;4.43;;;1.30;;
23078;SDS011;11707;50.830;4.364;2022-09-09T14:39:06;6.85;;;1.83;;
23078;SDS011;11707;50.830;4.364;2022-09-09T14:41:33;7.70;;;3.15;;
23078;SDS011;11707;50.830;4.364;2022-09-09T14:43:59;8.70;;;1.80;;
23078;SDS011;11707;50.830;4.364;2022-09-09T14:46:25;5.72;;;1.73;;
23078;SDS011;11707;50.830;4.364;2022-09-09T14:48:51;6.03;;;1.42;;
23078;SDS011;11707;50.830;4.364;2022-09-09T14:51:21;8.65;;;1.42;;
23078;SDS011;11707;50.830;4.364;2022-09-09T14:53:52;4.57;;;1.95;;
23078;SDS011;11707;50.830;4.364;2022-09-09T14:56:20;6.10;;;1.35;;
23078;SDS011;11707;50.830;4.364;2022-09-09T14:58:48;6.25;;;1.90;;
23078;SDS011;11707;50.830;4.364;2022-09-09T15:01:16;5.65;;;1.35;;
23078;SDS011;11707;50.830;4.364;2022-09-09T15:03:54;5.60;;;1.45;;
23078;SDS011;11707;50.830;4.364;2022-09-09T15:06:21;6.35;;;1.42;;
23078;SDS011;11707;50.830;4.364;2022-09-09T15:08:49;7.03;;;1.58;;
23078;SDS011;11707;50.830;4.364;2022-09-09T15:11:17;3.97;;;1.30;;
23078;SDS011;11707;50.830;4.364;2022-09-09T15:13:44;8.88;;;1.40;;
23078;SDS011;11707;50.830;4.364;2022-09-09T15:16:14;5.45;;;1.42;;
23078;SDS011;11707;50.830;4.364;2022-09-09T15:18:41;6.53;;;1.58;;
23078;SDS011;11707;50.830;4.364;2022-09-09T15:21:10;7.88;;;1.13;;
23078;SDS011;11707;50.830;4.364;2022-09-09T15:23:40;3.40;;;1.35;;
23078;SDS011;11707;50.830;4.364;2022-09-09T15:26:06;5.32;;;1.35;;
23078;SDS011;11707;50.830;4.364;2022-09-09T15:28:33;5.68;;;1.23;;
23078;SDS011;11707;50.830;4.364;2022-09-09T15:31:14;5.45;;;1.20;;
23078;SDS011;11707;50.830;4.364;2022-09-09T15:34:02;7.03;;;1.60;;
23078;SDS011;11707;50.830;4.364;2022-09-09T15:36:34;11.85;;;2.45;;
23078;SDS011;11707;50.830;4.364;2022-09-09T15:39:02;4.93;;;1.30;;
23078;SDS011;11707;50.830;4.364;2022-09-09T15:41:30;3.47;;;1.77;;
23078;SDS011;11707;50.830;4.364;2022-09-09T15:43:59;8.13;;;1.70;;
23078;SDS011;11707;50.830;4.364;2022-09-09T15:46:26;5.50;;;2.15;;
23078;SDS011;11707;50.830;4.364;2022-09-09T15:48:58;6.00;;;1.52;;
23078;SDS011;11707;50.830;4.364;2022-09-09T15:51:31;5.78;;;1.85;;
23078;SDS011;11707;50.830;4.364;2022-09-09T15:53:57;5.38;;;1.50;;
23078;SDS011;11707;50.830;4.364;2022-09-09T15:56:27;3.97;;;1.55;;
23078;SDS011;11707;50.830;4.364;2022-09-09T15:58:57;11.82;;;2.10;;
23078;SDS011;11707;50.830;4.364;2022-09-09T16:01:25;6.50;;;1.48;;
23078;SDS011;11707;50.830;4.364;2022-09-09T16:03:52;6.95;;;1.55;;
23078;SDS011;11707;50.830;4.364;2022-09-09T16:06:19;5.55;;;1.45;;
23078;SDS011;11707;50.830;4.364;2022-09-09T16:08:47;5.18;;;2.05;;
23078;SDS011;11707;50.830;4.364;2022-09-09T16:13:54;6.68;;;2.33;;
23078;SDS011;11707;50.830;4.364;2022-09-09T16:16:24;6.07;;;1.48;;
23078;SDS011;11707;50.830;4.364;2022-09-09T16:18:53;5.20;;;1.77;;
23078;SDS011;11707;50.830;4.364;2022-09-09T16:21:24;4.30;;;1.50;;
23078;SDS011;11707;50.830;4.364;2022-09-09T16:23:54;6.93;;;2.22;;
23078;SDS011;11707;50.830;4.364;2022-09-09T16:26:21;7.63;;;2.17;;
23078;SDS011;11707;50.830;4.364;2022-09-09T16:28:48;6.22;;;2.25;;
23078;SDS011;11707;50.830;4.364;2022-09-09T16:31:21;4.30;;;1.40;;
23078;SDS011;11707;50.830;4.364;2022-09-09T16:33:48;6.13;;;1.70;;
23078;SDS011;11707;50.830;4.364;2022-09-09T16:36:16;7.78;;;1.95;;
23078;SDS011;11707;50.830;4.364;2022-09-09T16:38:43;4.72;;;1.70;;
23078;SDS011;11707;50.830;4.364;2022-09-09T16:41:10;8.80;;;1.73;;
23078;SDS011;11707;50.830;4.364;2022-09-09T16:43:36;5.57;;;1.58;;
23078;SDS011;11707;50.830;4.364;2022-09-09T16:46:03;7.40;;;1.60;;
23078;SDS011;11707;50.830;4.364;2022-09-09T16:48:38;5.45;;;1.77;;
23078;SDS011;11707;50.830;4.364;2022-09-09T16:51:08;5.68;;;2.00;;
23078;SDS011;11707;50.830;4.364;2022-09-09T16:53:44;6.53;;;1.63;;
23078;SDS011;11707;50.830;4.364;2022-09-09T16:56:11;7.97;;;2.13;;
23078;SDS011;11707;50.830;4.364;2022-09-09T16:58:42;10.25;;;1.92;;
23078;SDS011;11707;50.830;4.364;2022-09-09T17:01:09;5.22;;;2.30;;
23078;SDS011;11707;50.830;4.364;2022-09-09T17:03:39;4.75;;;1.90;;
23078;SDS011;11707;50.830;4.364;2022-09-09T17:06:08;7.10;;;2.90;;
23078;SDS011;11707;50.830;4.364;2022-09-09T17:08:36;4.45;;;1.70;;
23078;SDS011;11707;50.830;4.364;2022-09-09T17:11:03;3.88;;;1.60;;
23078;SDS011;11707;50.830;4.364;2022-09-09T17:13:29;6.22;;;1.50;;
23078;SDS011;11707;50.830;4.364;2022-09-09T17:15:56;7.38;;;2.35;;
23078;SDS011;11707;50.830;4.364;2022-09-09T17:18:22;5.72;;;1.90;;
23078;SDS011;11707;50.830;4.364;2022-09-09T17:20:48;8.38;;;1.80;;
23078;SDS011;11707;50.830;4.364;2022-09-09T17:23:13;7.45;;;1.88;;
23078;SDS011;11707;50.830;4.364;2022-09-09T17:25:40;5.30;;;1.80;;
23078;SDS011;11707;50.830;4.364;2022-09-09T17:28:06;7.35;;;1.77;;
23078;SDS011;11707;50.830;4.364;2022-09-09T17:30:35;6.40;;;2.40;;
23078;SDS011;11707;50.830;4.364;2022-09-09T17:33:02;9.77;;;2.35;;
23078;SDS011;11707;50.830;4.364;2022-09-09T17:35:29;5.28;;;1.52;;
23078;SDS011;11707;50.830;4.364;2022-09-09T17:37:56;4.78;;;1.23;;
23078;SDS011;11707;50.830;4.364;2022-09-09T17:40:22;4.65;;;1.58;;
23078;SDS011;11707;50.830;4.364;2022-09-09T17:42:48;6.75;;;2.28;;
23078;SDS011;11707;50.830;4.364;2022-09-09T17:45:15;6.53;;;1.85;;
23078;SDS011;11707;50.830;4.364;2022-09-09T17:47:41;14.75;;;1.70;;
23078;SDS011;11707;50.830;4.364;2022-09-09T17:50:08;7.80;;;2.15;;
23078;SDS011;11707;50.830;4.364;2022-09-09T17:52:35;10.00;;;2.30;;